createdAt,value
2023-04-15T00:00:35.480Z,100115.47
2023-04-15T00:03:02.499Z,100111.94
2023-04-15T00:05:28.971Z,100115.44
2023-04-15T00:07:55.490Z,100107.56
2023-04-15T00:10:21.829Z,100110.19
2023-04-15T00:12:48.157Z,100115.56
2023-04-15T00:15:14.520Z,100109.38
2023-04-15T00:17:41.200Z,100115.56
2023-04-15T00:20:07.658Z,100102.34
2023-04-15T00:22:34.008Z,100107.53
2023-04-15T00:25:00.343Z,100111.06
2023-04-15T00:27:26.696Z,100108.41
2023-04-15T00:29:53.402Z,100103.31
2023-04-15T00:32:20.304Z,100109.53
2023-04-15T00:34:47.176Z,100104.22
2023-04-15T00:37:13.522Z,100112.03
2023-04-15T00:39:40.103Z,100107.56
2023-04-15T00:42:06.461Z,100106.97
2023-04-15T00:44:33.382Z,100107.88
2023-04-15T00:46:59.805Z,100113.31
2023-04-15T00:49:27.134Z,100108.69
2023-04-15T00:51:53.529Z,100114.91
2023-04-15T00:54:19.919Z,100114.19
2023-04-15T00:56:46.718Z,100121.19
2023-04-15T00:59:13.182Z,100119.53
2023-04-15T01:01:39.980Z,100116.78
2023-04-15T01:04:07.063Z,100118.59
2023-04-15T01:06:34.072Z,100114.16
2023-04-15T01:09:00.786Z,100106.19
2023-04-15T01:11:27.386Z,100105.31
2023-04-15T01:13:53.805Z,100107.75
2023-04-15T01:16:20.268Z,100109.63
2023-04-15T01:18:46.951Z,100105.22
2023-04-15T01:21:13.497Z,100108.59
2023-04-15T01:23:40.186Z,100110.22
2023-04-15T01:26:11.010Z,100117.06
2023-04-15T01:28:38.350Z,100115.13
2023-04-15T01:31:05.692Z,100115.81
2023-04-15T01:33:32.349Z,100111.63
2023-04-15T01:35:58.700Z,100102.91
2023-04-15T01:38:25.236Z,100114.25
2023-04-15T01:40:51.785Z,100108.88
2023-04-15T01:43:18.985Z,100108.00
2023-04-15T01:45:45.731Z,100116.72
2023-04-15T01:48:12.369Z,100114.09
2023-04-15T01:50:39.021Z,100112.28
2023-04-15T01:53:05.385Z,100114.84
2023-04-15T01:55:31.795Z,100113.94
2023-04-15T01:57:58.182Z,100120.84
2023-04-15T02:00:24.926Z,100114.66
2023-04-15T02:02:51.852Z,100118.09
2023-04-15T02:05:18.381Z,100118.94
2023-04-15T02:07:47.282Z,100116.47
2023-04-15T02:10:13.691Z,100113.63
2023-04-15T02:12:40.715Z,100110.03
2023-04-15T02:15:07.206Z,100117.19
2023-04-15T02:17:34.916Z,100119.69
2023-04-15T02:20:01.336Z,100124.91
2023-04-15T02:22:27.848Z,100132.63
2023-04-15T02:24:55.043Z,100121.34
2023-04-15T02:27:22.493Z,100128.53
2023-04-15T02:29:52.232Z,100133.84
2023-04-15T02:32:20.110Z,100137.19
2023-04-15T02:34:46.843Z,100133.28
2023-04-15T02:37:13.790Z,100130.50
2023-04-15T02:39:40.209Z,100139.22
2023-04-15T02:42:07.283Z,100129.56
2023-04-15T02:44:35.193Z,100139.97
2023-04-15T02:47:04.880Z,100148.56
2023-04-15T02:49:31.303Z,100143.25
2023-04-15T02:51:58.211Z,100151.25
2023-04-15T02:54:24.761Z,100143.81
2023-04-15T02:56:52.186Z,100142.78
2023-04-15T02:59:18.546Z,100140.34
2023-04-15T03:01:45.076Z,100141.50
2023-04-15T03:04:11.853Z,100146.09
2023-04-15T03:06:38.442Z,100151.75
2023-04-15T03:09:07.710Z,100161.13
2023-04-15T03:11:40.448Z,100170.59
2023-04-15T03:14:08.630Z,100159.88
2023-04-15T03:16:37.850Z,100161.66
2023-04-15T03:19:04.346Z,100167.53
2023-04-15T03:21:33.028Z,100159.28
2023-04-15T03:23:59.588Z,100164.63
2023-04-15T03:26:26.224Z,100172.66
2023-04-15T03:28:52.691Z,100170.94
2023-04-15T03:31:19.302Z,100169.22
2023-04-15T03:33:45.736Z,100170.03
2023-04-15T03:36:12.851Z,100161.97
2023-04-15T03:38:39.249Z,100165.63
2023-04-15T03:41:05.999Z,100170.88
2023-04-15T03:43:32.372Z,100176.97
2023-04-15T03:46:00.230Z,100177.69
2023-04-15T03:48:28.130Z,100180.28
2023-04-15T03:50:54.506Z,100191.63
2023-04-15T03:53:20.860Z,100178.50
2023-04-15T03:55:47.728Z,100181.09
2023-04-15T03:58:14.094Z,100190.75
2023-04-15T04:00:41.466Z,100189.06
2023-04-15T04:03:08.507Z,100196.28
2023-04-15T04:05:37.119Z,100197.09
2023-04-15T04:08:03.511Z,100202.25
2023-04-15T04:10:29.875Z,100203.09
2023-04-15T04:12:56.229Z,100209.16
2023-04-15T04:15:22.630Z,100202.88
2023-04-15T04:17:49.013Z,100214.28
2023-04-15T04:20:15.614Z,100209.63
2023-04-15T04:22:42.024Z,100205.22
2023-04-15T04:25:08.652Z,100210.75
2023-04-15T04:27:35.150Z,100207.19
2023-04-15T04:30:01.554Z,100212.50
2023-04-15T04:32:27.915Z,100213.50
2023-04-15T04:34:54.436Z,100216.84
2023-04-15T04:37:20.818Z,100218.66
2023-04-15T04:39:47.164Z,100216.84
2023-04-15T04:42:13.533Z,100229.19
2023-04-15T04:44:39.869Z,100221.44
2023-04-15T04:47:07.534Z,100231.94
2023-04-15T04:49:33.942Z,100230.16
2023-04-15T04:52:00.495Z,100232.56
2023-04-15T04:54:27.689Z,100233.34
2023-04-15T04:56:54.068Z,100238.69
2023-04-15T04:59:20.410Z,100235.06
2023-04-15T05:01:46.833Z,100237.66
2023-04-15T05:04:13.496Z,100238.56
2023-04-15T05:06:39.976Z,100247.63
2023-04-15T05:09:06.648Z,100249.41
2023-04-15T05:11:33.055Z,100243.72
2023-04-15T05:14:01.644Z,100248.53
2023-04-15T05:16:28.049Z,100257.28
2023-04-15T05:18:54.436Z,100256.59
2023-04-15T05:21:20.973Z,100254.03
2023-04-15T05:23:47.313Z,100260.16
2023-04-15T05:26:13.711Z,100250.66
2023-04-15T05:28:40.093Z,100258.88
2023-04-15T05:31:07.344Z,100265.41
2023-04-15T05:33:33.713Z,100270.25
2023-04-15T05:36:00.053Z,100270.38
2023-04-15T05:38:27.274Z,100279.16
2023-04-15T05:40:53.672Z,100272.97
2023-04-15T05:43:20.004Z,100279.09
2023-04-15T05:45:46.751Z,100290.19
2023-04-15T05:48:13.100Z,100295.25
2023-04-15T05:50:39.473Z,100284.59
2023-04-15T05:53:06.302Z,100290.56
2023-04-15T05:55:32.877Z,100292.44
2023-04-15T05:57:59.213Z,100300.66
2023-04-15T06:00:25.978Z,100300.34
2023-04-15T06:02:53.170Z,100307.56
2023-04-15T06:05:19.974Z,100321.16
2023-04-15T06:07:48.353Z,100317.91
2023-04-15T06:10:14.995Z,100321.53
2023-04-15T06:12:41.362Z,100324.75
2023-04-15T06:15:09.912Z,100330.25
2023-04-15T06:17:36.317Z,100337.28
2023-04-15T06:20:05.078Z,100333.31
2023-04-15T06:22:31.453Z,100337.63
2023-04-15T06:25:06.860Z,100346.63
2023-04-15T06:27:33.315Z,100350.41
2023-04-15T06:29:59.676Z,100342.31
2023-04-15T06:32:28.467Z,100355.13
2023-04-15T06:34:55.079Z,100350.78
2023-04-15T06:37:21.424Z,100358.72
2023-04-15T06:39:47.869Z,100359.91
2023-04-15T06:42:14.251Z,100358.47
2023-04-15T06:44:40.626Z,100362.72
2023-04-15T06:47:07.025Z,100361.16
2023-04-15T06:49:33.769Z,100363.03
2023-04-15T06:52:00.682Z,100371.34
2023-04-15T06:54:27.416Z,100367.06
2023-04-15T06:56:53.794Z,100376.47
2023-04-15T06:59:20.158Z,100375.59
2023-04-15T07:01:46.640Z,100380.81
2023-04-15T07:04:13.495Z,100391.31
2023-04-15T07:06:39.876Z,100382.13
2023-04-15T07:09:06.318Z,100393.34
2023-04-15T07:11:32.683Z,100388.91
2023-04-15T07:13:59.041Z,100394.34
2023-04-15T07:16:27.082Z,100391.91
2023-04-15T07:18:55.826Z,100399.06
2023-04-15T07:21:22.476Z,100399.41
2023-04-15T07:23:52.057Z,100400.81
2023-04-15T07:26:18.476Z,100415.47
2023-04-15T07:28:46.290Z,100416.63
2023-04-15T07:31:12.760Z,100407.63
2023-04-15T07:33:39.148Z,100413.44
2023-04-15T07:36:05.590Z,100416.22
2023-04-15T07:38:31.976Z,100414.41
2023-04-15T07:40:58.344Z,100421.00
2023-04-15T07:43:24.780Z,100437.06
2023-04-15T07:45:51.143Z,100447.72
2023-04-15T07:48:18.119Z,100433.91
2023-04-15T07:50:44.749Z,100430.59
2023-04-15T07:53:11.103Z,100430.75
2023-04-15T07:55:37.457Z,100436.78
2023-04-15T07:58:03.845Z,100436.53
2023-04-15T08:00:30.538Z,100432.22
2023-04-15T08:02:57.500Z,100441.03
2023-04-15T08:05:24.053Z,100442.19
2023-04-15T08:07:50.591Z,100450.44
2023-04-15T08:10:16.999Z,100444.72
2023-04-15T08:12:43.446Z,100447.34
2023-04-15T08:15:09.814Z,100446.59
2023-04-15T08:17:36.212Z,100449.22
2023-04-15T08:20:02.593Z,100456.34
2023-04-15T08:22:29.098Z,100468.03
2023-04-15T08:24:55.566Z,100454.69
2023-04-15T08:27:22.059Z,100458.28
2023-04-15T08:29:48.484Z,100473.28
2023-04-15T08:32:15.292Z,100459.19
2023-04-15T08:34:41.873Z,100464.72
2023-04-15T08:37:08.247Z,100461.97
2023-04-15T08:39:34.584Z,100479.34
2023-04-15T08:42:01.869Z,100480.25
2023-04-15T08:44:28.523Z,100474.16
2023-04-15T08:46:54.875Z,100474.44
2023-04-15T08:49:22.537Z,100470.91
2023-04-15T08:51:49.593Z,100473.56
2023-04-15T08:54:16.147Z,100478.25
2023-04-15T08:56:42.720Z,100486.66
2023-04-15T08:59:09.806Z,100487.53
2023-04-15T09:01:36.469Z,100504.34
2023-04-15T09:04:03.030Z,100486.69
2023-04-15T09:06:29.529Z,100489.50
2023-04-15T09:08:55.881Z,100484.19
2023-04-15T09:11:22.223Z,100495.84
2023-04-15T09:13:48.870Z,100485.91
2023-04-15T09:16:15.583Z,100502.94
2023-04-15T09:18:42.043Z,100500.16
2023-04-15T09:21:08.958Z,100493.31
2023-04-15T09:23:35.770Z,100494.06
2023-04-15T09:26:02.440Z,100518.88
2023-04-15T09:28:28.917Z,100503.06
2023-04-15T09:30:55.342Z,100505.69
2023-04-15T09:33:21.760Z,100504.81
2023-04-15T09:35:48.088Z,100508.38
2023-04-15T09:38:14.430Z,100499.38
2023-04-15T09:40:41.068Z,100518.00
2023-04-15T09:43:07.513Z,100531.88
2023-04-15T09:45:33.898Z,100524.91
2023-04-15T09:48:00.302Z,100531.28
2023-04-15T09:50:27.097Z,100526.81
2023-04-15T09:52:53.648Z,100525.25
2023-04-15T09:55:20.313Z,100537.47
2023-04-15T09:57:47.424Z,100540.31
2023-04-15T10:00:14.172Z,100541.78
2023-04-15T10:02:40.949Z,100544.47
2023-04-15T10:05:07.384Z,100541.81
2023-04-15T10:07:33.994Z,100545.53
2023-04-15T10:10:00.636Z,100554.25
2023-04-15T10:12:26.989Z,100558.84
2023-04-15T10:14:53.427Z,100573.72
2023-04-15T10:17:19.949Z,100558.06
2023-04-15T10:19:46.758Z,100568.56
2023-04-15T10:22:13.147Z,100571.09
2023-04-15T10:24:39.498Z,100565.97
2023-04-15T10:27:06.251Z,100566.03
2023-04-15T10:29:35.631Z,100570.47
2023-04-15T10:32:02.080Z,100564.19
2023-04-15T10:34:28.506Z,100552.78
2023-04-15T10:36:54.852Z,100570.34
2023-04-15T10:39:21.268Z,100576.66
2023-04-15T10:41:47.799Z,100588.97
2023-04-15T10:44:14.167Z,100573.13
2023-04-15T10:46:40.612Z,100569.53
2023-04-15T10:49:07.052Z,100576.53
2023-04-15T10:51:33.351Z,100580.06
2023-04-15T10:53:59.851Z,100592.59
2023-04-15T10:56:26.229Z,100586.34
2023-04-15T10:58:52.693Z,100589.84
2023-04-15T11:01:19.193Z,100594.09
2023-04-15T11:03:45.896Z,100606.53
2023-04-15T11:06:12.382Z,100585.44
2023-04-15T11:08:38.793Z,100595.09
2023-04-15T11:11:05.243Z,100626.81
2023-04-15T11:13:33.122Z,100587.16
2023-04-15T11:16:01.300Z,100603.78
2023-04-15T11:18:28.450Z,100600.59
2023-04-15T11:20:56.414Z,100588.19
2023-04-15T11:23:24.952Z,100596.09
2023-04-15T11:25:51.368Z,100599.66
2023-04-15T11:28:18.109Z,100621.69
2023-04-15T11:30:44.647Z,100634.97
2023-04-15T11:33:12.211Z,100623.34
2023-04-15T11:35:40.960Z,100622.28
2023-04-15T11:38:09.734Z,100627.03
2023-04-15T11:40:36.163Z,100620.88
2023-04-15T11:43:02.550Z,100644.38
2023-04-15T11:45:28.940Z,100641.34
2023-04-15T11:47:55.332Z,100633.97
2023-04-15T11:50:22.004Z,100632.06
2023-04-15T11:52:48.382Z,100644.66
2023-04-15T11:55:15.505Z,100634.88
2023-04-15T11:57:41.865Z,100628.66
2023-04-15T12:00:09.724Z,100641.25
2023-04-15T12:02:36.875Z,100646.63
2023-04-15T12:05:03.906Z,100658.00
2023-04-15T12:07:30.331Z,100652.59
2023-04-15T12:09:57.121Z,100672.75
2023-04-15T12:12:23.531Z,100657.97
2023-04-15T12:14:49.944Z,100648.25
2023-04-15T12:17:16.649Z,100659.59
2023-04-15T12:19:45.299Z,100681.75
2023-04-15T12:22:11.686Z,100690.78
2023-04-15T12:24:38.162Z,100681.63
2023-04-15T12:27:04.591Z,100703.94
2023-04-15T12:29:30.973Z,100680.03
2023-04-15T12:31:57.471Z,100690.00
2023-04-15T12:34:24.371Z,100698.59
2023-04-15T12:36:50.714Z,100692.56
2023-04-15T12:39:17.116Z,100691.72
2023-04-15T12:41:43.445Z,100701.63
2023-04-15T12:44:10.029Z,100695.78
2023-04-15T12:46:36.528Z,100706.63
2023-04-15T12:49:03.125Z,100715.34
2023-04-15T12:51:29.901Z,100716.56
2023-04-15T12:53:56.304Z,100707.47
2023-04-15T12:56:23.857Z,100716.09
2023-04-15T12:58:50.243Z,100722.28
2023-04-15T13:01:16.615Z,100723.13
2023-04-15T13:03:43.154Z,100732.81
2023-04-15T13:06:09.630Z,100730.00
2023-04-15T13:08:38.552Z,100725.63
2023-04-15T13:11:07.323Z,100750.47
2023-04-15T13:13:33.780Z,100747.78
2023-04-15T13:16:00.807Z,100766.28
2023-04-15T13:18:27.239Z,100753.94
2023-04-15T13:20:53.668Z,100767.19
2023-04-15T13:23:20.220Z,100754.44
2023-04-15T13:25:46.638Z,100787.63
2023-04-15T13:28:12.989Z,100768.91
2023-04-15T13:30:39.418Z,100807.75
2023-04-15T13:33:05.892Z,100768.94
2023-04-15T13:35:32.330Z,100771.13
2023-04-15T13:37:58.665Z,100785.00
2023-04-15T13:40:25.356Z,100777.06
2023-04-15T13:42:53.127Z,100788.53
2023-04-15T13:45:19.510Z,100781.66
2023-04-15T13:47:45.935Z,100814.94
2023-04-15T13:50:12.562Z,100785.69
2023-04-15T13:52:38.944Z,100823.75
2023-04-15T13:55:10.270Z,100805.06
2023-04-15T13:57:47.140Z,100809.66
2023-04-15T14:00:13.957Z,100799.47
2023-04-15T14:02:40.603Z,100804.13
2023-04-15T14:05:07.224Z,100810.59
2023-04-15T14:07:33.539Z,100795.03
2023-04-15T14:09:59.921Z,100810.00
2023-04-15T14:12:26.263Z,100820.34
2023-04-15T14:14:52.850Z,100814.31
2023-04-15T14:17:19.241Z,100829.97
2023-04-15T14:19:45.592Z,100815.41
2023-04-15T14:22:11.929Z,100820.66
2023-04-15T14:24:38.257Z,100826.59
2023-04-15T14:27:04.660Z,100837.41
2023-04-15T14:29:31.196Z,100838.56
2023-04-15T14:32:03.953Z,100834.97
2023-04-15T14:34:38.813Z,100842.38
2023-04-15T14:37:05.228Z,100860.13
2023-04-15T14:39:31.607Z,100852.66
2023-04-15T14:41:57.993Z,100837.63
2023-04-15T14:44:24.355Z,100850.13
2023-04-15T14:46:50.742Z,100849.25
2023-04-15T14:49:17.199Z,100866.00
2023-04-15T14:51:43.556Z,100879.97
2023-04-15T14:54:09.909Z,100861.56
2023-04-15T14:56:36.276Z,100867.13
2023-04-15T14:59:02.979Z,100860.09
2023-04-15T15:01:30.268Z,100865.81
2023-04-15T15:03:56.700Z,100890.72
2023-04-15T15:06:23.188Z,100870.41
2023-04-15T15:08:49.576Z,100870.50
2023-04-15T15:11:16.250Z,100901.56
2023-04-15T15:13:42.601Z,100866.00
2023-04-15T15:16:09.146Z,100904.50
2023-04-15T15:18:35.690Z,100902.22
2023-04-15T15:21:02.076Z,100886.44
2023-04-15T15:23:28.462Z,100885.69
2023-04-15T15:25:54.872Z,100897.78
2023-04-15T15:28:21.852Z,100900.50
2023-04-15T15:30:48.232Z,100897.56
2023-04-15T15:33:14.607Z,100893.91
2023-04-15T15:35:41.126Z,100899.84
2023-04-15T15:38:07.500Z,100904.00
2023-04-15T15:40:33.885Z,100919.78
2023-04-15T15:43:00.268Z,100907.84
2023-04-15T15:45:27.350Z,100910.91
2023-04-15T15:47:53.714Z,100937.81
2023-04-15T15:50:20.213Z,100920.09
2023-04-15T15:52:46.612Z,100909.91
2023-04-15T15:55:12.962Z,100933.75
2023-04-15T15:57:39.344Z,100924.41
2023-04-15T16:00:12.043Z,100921.13
2023-04-15T16:05:08.487Z,100939.78
2023-04-15T16:07:34.942Z,100943.63
2023-04-15T16:10:01.286Z,100945.00
2023-04-15T16:12:27.752Z,100942.19
2023-04-15T16:14:54.189Z,100959.56
2023-04-15T16:17:20.537Z,100952.72
2023-04-15T16:19:57.647Z,100961.06
2023-04-15T16:22:27.301Z,100967.25
2023-04-15T16:24:54.098Z,100948.78
2023-04-15T16:27:20.496Z,100974.59
2023-04-15T16:29:46.871Z,100957.84
2023-04-15T16:32:13.358Z,100968.09
2023-04-15T16:34:41.178Z,100969.31
2023-04-15T16:37:07.600Z,100972.69
2023-04-15T16:39:34.008Z,100977.16
2023-04-15T16:42:00.399Z,101014.94
2023-04-15T16:44:26.778Z,100970.56
2023-04-15T16:46:53.160Z,100983.47
2023-04-15T16:49:19.525Z,100993.13
2023-04-15T16:51:45.898Z,100987.25
2023-04-15T16:54:12.248Z,100991.09
2023-04-15T16:56:38.600Z,100985.22
2023-04-15T16:59:05.232Z,100992.97
2023-04-15T17:01:31.959Z,100997.97
2023-04-15T17:03:58.500Z,101013.16
2023-04-15T17:06:24.963Z,101019.13
2023-04-15T17:08:51.534Z,101007.50
2023-04-15T17:11:18.004Z,101000.97
2023-04-15T17:13:44.352Z,101014.22
2023-04-15T17:16:10.853Z,101010.38
2023-04-15T17:18:37.340Z,101027.09
2023-04-15T17:21:03.690Z,101075.84
2023-04-15T17:23:30.860Z,101036.63
2023-04-15T17:25:57.231Z,101020.97
2023-04-15T17:28:23.670Z,101027.22
2023-04-15T17:30:50.059Z,101019.47
2023-04-15T17:33:56.516Z,101043.28
2023-04-15T17:36:02.946Z,101042.06
2023-04-15T17:38:29.324Z,101048.34
2023-04-15T17:40:55.658Z,101021.50
2023-04-15T17:43:22.073Z,101044.88
2023-04-15T17:45:48.496Z,101045.63
2023-04-15T17:48:14.945Z,101047.53
2023-04-15T17:50:41.347Z,101066.34
2023-04-15T17:53:07.709Z,101060.94
2023-04-15T17:55:34.058Z,101046.19
2023-04-15T17:58:00.431Z,101067.69
2023-04-15T18:00:26.818Z,101066.97
2023-04-15T18:02:53.292Z,101067.38
2023-04-15T18:05:20.106Z,101057.16
2023-04-15T18:07:46.615Z,101075.31
2023-04-15T18:10:13.246Z,101075.84
2023-04-15T18:12:39.675Z,101097.97
2023-04-15T18:15:06.235Z,101075.84
2023-04-15T18:17:32.661Z,101094.88
2023-04-15T18:19:59.203Z,101099.28
2023-04-15T18:22:25.752Z,101097.13
2023-04-15T18:24:52.190Z,101088.22
2023-04-15T18:27:18.749Z,101104.25
2023-04-15T18:29:45.182Z,101091.03
2023-04-15T18:32:11.559Z,101115.22
2023-04-15T18:34:38.309Z,101127.09
2023-04-15T18:37:05.390Z,101123.72
2023-04-15T18:39:31.758Z,101139.25
2023-04-15T18:41:58.166Z,101121.72
2023-04-15T18:44:24.635Z,101129.13
2023-04-15T18:46:50.986Z,101129.13
2023-04-15T18:49:17.495Z,101149.44
2023-04-15T18:51:43.912Z,101152.59
2023-04-15T18:54:10.609Z,101132.13
2023-04-15T18:56:37.020Z,101139.47
2023-04-15T18:59:28.974Z,101149.47
2023-04-15T19:01:50.310Z,101148.38
2023-04-15T19:04:17.181Z,101171.38
2023-04-15T19:06:43.728Z,101159.81
2023-04-15T19:09:10.655Z,101163.00
2023-04-15T19:11:37.852Z,101183.75
2023-04-15T19:14:04.374Z,101208.75
2023-04-15T19:16:30.852Z,101179.47
2023-04-15T19:18:57.420Z,101167.72
2023-04-15T19:21:23.823Z,101180.94
2023-04-15T19:23:50.873Z,101176.84
2023-04-15T19:26:17.945Z,101180.06
2023-04-15T19:28:44.416Z,101206.13
2023-04-15T19:31:10.836Z,101187.56
2023-04-15T19:33:37.430Z,101198.56
2023-04-15T19:36:04.225Z,101207.78
2023-04-15T19:38:31.104Z,101201.63
2023-04-15T19:40:57.567Z,101206.81
2023-04-15T19:43:24.036Z,101209.66
2023-04-15T19:45:52.329Z,101223.16
2023-04-15T19:48:19.525Z,101232.53
2023-04-15T19:50:45.927Z,101236.00
2023-04-15T19:53:12.291Z,101215.28
2023-04-15T19:55:38.894Z,101203.72
2023-04-15T19:58:05.947Z,101219.19
2023-04-15T20:00:32.278Z,101215.50
2023-04-15T20:02:58.968Z,101210.97
2023-04-15T20:05:25.439Z,101212.44
2023-04-15T20:07:53.118Z,101221.59
2023-04-15T20:10:19.523Z,101225.09
2023-04-15T20:12:49.546Z,101221.38
2023-04-15T20:15:19.130Z,101226.94
2023-04-15T20:17:46.113Z,101239.69
2023-04-15T20:20:12.597Z,101260.34
2023-04-15T20:22:38.960Z,101242.28
2023-04-15T20:25:05.349Z,101219.69
2023-04-15T20:27:31.920Z,101227.03
2023-04-15T20:29:58.336Z,101245.34
2023-04-15T20:32:24.907Z,101234.16
2023-04-15T20:34:53.544Z,101225.16
2023-04-15T20:37:22.773Z,101226.41
2023-04-15T20:39:49.852Z,101224.16
2023-04-15T20:42:19.440Z,101224.56
2023-04-15T20:44:45.795Z,101228.44
2023-04-15T20:47:12.337Z,101241.59
2023-04-15T20:49:38.964Z,101250.47
2023-04-15T20:52:08.351Z,101228.59
2023-04-15T20:54:34.727Z,101233.16
2023-04-15T20:57:02.105Z,101248.56
2023-04-15T20:59:28.555Z,101238.41
2023-04-15T21:01:56.939Z,101261.88
2023-04-15T21:04:24.423Z,101237.66
2023-04-15T21:06:52.042Z,101243.00
2023-04-15T21:09:19.625Z,101234.28
2023-04-15T21:14:20.046Z,101236.50
2023-04-15T21:16:47.261Z,101243.16
2023-04-15T21:19:14.581Z,101256.38
2023-04-15T21:21:41.036Z,101233.31
2023-04-15T21:24:10.675Z,101246.75
2023-04-15T21:26:37.238Z,101247.75
2023-04-15T21:29:03.885Z,101254.69
2023-04-15T21:31:31.484Z,101257.34
2023-04-15T21:34:00.725Z,101269.22
2023-04-15T21:36:28.346Z,101262.97
2023-04-15T21:38:55.016Z,101265.88
2023-04-15T21:41:21.435Z,101290.59
2023-04-15T21:43:47.783Z,101285.97
2023-04-15T21:46:23.503Z,101274.34
2023-04-15T21:48:54.300Z,101276.69
2023-04-15T21:51:22.640Z,101287.38
2023-04-15T21:53:49.014Z,101279.88
2023-04-15T21:56:15.771Z,101284.31
2023-04-15T21:58:42.921Z,101313.00
2023-04-15T22:01:09.301Z,101329.97
2023-04-15T22:03:35.914Z,101305.38
2023-04-15T22:06:02.976Z,101304.44
2023-04-15T22:08:31.004Z,101310.63
2023-04-15T22:11:00.107Z,101329.59
2023-04-15T22:13:29.751Z,101306.09
2023-04-15T22:15:58.359Z,101307.66
2023-04-15T22:18:24.719Z,101292.28
2023-04-15T22:20:51.176Z,101332.22
2023-04-15T22:23:20.717Z,101292.16
2023-04-15T22:25:50.141Z,101286.81
2023-04-15T22:28:17.380Z,101293.69
2023-04-15T22:30:43.860Z,101305.16
2023-04-15T22:33:10.288Z,101310.88
2023-04-15T22:35:37.284Z,101330.75
2023-04-15T22:38:03.836Z,101321.75
2023-04-15T22:40:30.967Z,101317.16
2023-04-15T22:42:59.232Z,101320.56
2023-04-15T22:45:25.997Z,101319.78
2023-04-15T22:47:53.083Z,101314.22
2023-04-15T22:50:19.496Z,101322.13
2023-04-15T22:52:46.649Z,101330.66
2023-04-15T22:55:13.094Z,101320.66
2023-04-15T22:57:39.594Z,101326.34
2023-04-15T23:00:06.188Z,101330.28
2023-04-15T23:02:33.300Z,101344.38
2023-04-15T23:04:59.971Z,101342.75
2023-04-15T23:07:28.902Z,101331.06
2023-04-15T23:09:55.381Z,101338.25
2023-04-15T23:12:21.771Z,101338.38
2023-04-15T23:14:48.179Z,101343.50
2023-04-15T23:17:14.569Z,101341.03
2023-04-15T23:19:41.146Z,101338.28
2023-04-15T23:22:10.478Z,101347.06
2023-04-15T23:24:36.946Z,101348.84
2023-04-15T23:27:03.357Z,101363.19
2023-04-15T23:29:29.703Z,101353.19
2023-04-15T23:31:56.147Z,101343.94
2023-04-15T23:34:22.656Z,101354.66
2023-04-15T23:36:48.978Z,101365.66
2023-04-15T23:39:15.769Z,101351.50
2023-04-15T23:41:42.273Z,101348.25
2023-04-15T23:44:09.675Z,101362.81
2023-04-15T23:46:36.142Z,101355.53
2023-04-15T23:49:02.542Z,101356.28
2023-04-15T23:51:28.898Z,101359.28
2023-04-15T23:53:55.258Z,101365.88
2023-04-15T23:56:21.833Z,101348.56
2023-04-15T23:58:48.250Z,101344.69
